createdAt,value
2022-10-05T00:01:48.806Z,4.03
2022-10-05T00:04:21.696Z,3.47
2022-10-05T00:06:58.013Z,6.37
2022-10-05T00:09:24.744Z,4.30
2022-10-05T00:11:51.679Z,3.83
2022-10-05T00:14:29.894Z,3.43
2022-10-05T00:16:57.379Z,4.17
2022-10-05T00:19:33.172Z,4.27
2022-10-05T00:22:06.334Z,2.70
2022-10-05T00:24:33.081Z,4.67
2022-10-05T00:27:01.725Z,3.37
2022-10-05T00:29:28.634Z,4.80
2022-10-05T00:31:55.407Z,2.83
2022-10-05T00:34:22.199Z,3.33
2022-10-05T00:36:49.169Z,4.50
2022-10-05T00:39:18.300Z,4.13
2022-10-05T00:42:13.075Z,2.87
2022-10-05T00:44:48.857Z,7.23
2022-10-05T00:47:30.942Z,4.27
2022-10-05T00:50:15.353Z,5.63
2022-10-05T00:53:05.658Z,3.53
2022-10-05T00:55:53.339Z,5.27
2022-10-05T00:58:38.200Z,4.63
2022-10-05T01:01:17.742Z,3.23
2022-10-05T01:04:13.127Z,3.20
2022-10-05T01:07:12.288Z,4.33
2022-10-05T01:10:03.808Z,5.50
2022-10-05T01:12:37.236Z,4.40
2022-10-05T01:15:24.129Z,3.13
2022-10-05T01:18:06.028Z,7.77
2022-10-05T01:20:54.405Z,3.20
2022-10-05T01:23:41.924Z,3.43
2022-10-05T01:26:30.359Z,3.40
2022-10-05T01:29:11.611Z,4.60
2022-10-05T01:31:47.790Z,2.20
2022-10-05T01:34:20.321Z,6.07
2022-10-05T01:37:01.100Z,4.30
2022-10-05T01:39:47.866Z,4.83
2022-10-05T01:42:22.248Z,3.83
2022-10-05T01:44:55.806Z,2.93
2022-10-05T01:47:38.561Z,5.70
2022-10-05T01:50:21.411Z,4.97
2022-10-05T01:53:03.353Z,4.03
2022-10-05T01:55:40.499Z,3.83
2022-10-05T01:58:31.838Z,4.90
2022-10-05T02:01:38.416Z,4.03
2022-10-05T02:04:37.035Z,3.27
2022-10-05T02:07:10.546Z,4.37
2022-10-05T02:09:46.189Z,4.47
2022-10-05T02:12:19.498Z,3.63
2022-10-05T02:14:52.586Z,4.63
2022-10-05T02:17:37.322Z,3.47
2022-10-05T02:20:09.283Z,4.47
2022-10-05T02:22:45.028Z,4.10
2022-10-05T02:25:19.620Z,3.07
2022-10-05T02:28:25.179Z,4.50
2022-10-05T02:31:05.664Z,4.37
2022-10-05T02:33:34.277Z,6.77
2022-10-05T02:36:26.517Z,5.10
2022-10-05T02:39:15.268Z,4.97
2022-10-05T02:41:44.798Z,4.37
2022-10-05T02:44:38.620Z,2.50
2022-10-05T02:47:28.288Z,3.40
2022-10-05T02:50:27.605Z,3.40
2022-10-05T02:53:15.717Z,3.50
2022-10-05T02:55:45.374Z,7.17
2022-10-05T02:58:15.670Z,4.07
2022-10-05T03:01:15.246Z,3.77
2022-10-05T03:04:14.707Z,4.37
2022-10-05T03:07:16.145Z,5.40
2022-10-05T03:09:52.610Z,3.33
2022-10-05T03:12:39.493Z,3.27
2022-10-05T03:15:52.636Z,3.97
2022-10-05T03:18:57.502Z,3.93
2022-10-05T03:21:44.011Z,3.37
2022-10-05T03:24:19.767Z,4.13
2022-10-05T03:27:12.945Z,3.53
2022-10-05T03:30:06.515Z,2.33
2022-10-05T03:32:42.284Z,2.80
2022-10-05T03:35:20.115Z,3.23
2022-10-05T03:38:07.467Z,2.83
2022-10-05T03:40:44.774Z,6.93
2022-10-05T03:43:32.768Z,3.70
2022-10-05T03:46:08.523Z,3.93
2022-10-05T03:48:49.805Z,6.17
2022-10-05T03:51:23.875Z,2.00
2022-10-05T03:53:59.924Z,3.03
2022-10-05T03:56:47.050Z,3.00
2022-10-05T03:59:17.315Z,2.70
2022-10-05T04:01:48.646Z,5.17
2022-10-05T04:04:50.671Z,3.20
2022-10-05T04:07:54.798Z,3.63
2022-10-05T04:10:29.055Z,4.60
2022-10-05T04:13:11.962Z,2.37
2022-10-05T04:16:12.571Z,3.17
2022-10-05T04:18:50.667Z,3.90
2022-10-05T04:21:32.480Z,5.17
2022-10-05T04:24:25.935Z,2.50
2022-10-05T04:26:57.574Z,5.13
2022-10-05T04:29:43.238Z,4.43
2022-10-05T04:32:15.478Z,3.07
2022-10-05T04:35:00.677Z,2.73
2022-10-05T04:37:55.605Z,3.57
2022-10-05T04:40:25.371Z,5.27
2022-10-05T04:43:05.146Z,5.53
2022-10-05T04:46:08.794Z,7.73
2022-10-05T04:48:47.989Z,4.30
2022-10-05T04:51:30.582Z,4.97
2022-10-05T04:54:11.557Z,3.27
2022-10-05T04:57:09.732Z,8.27
2022-10-05T05:00:00.611Z,5.57
2022-10-05T05:02:47.396Z,6.30
2022-10-05T05:05:31.610Z,4.70
2022-10-05T05:08:19.498Z,5.63
2022-10-05T05:11:16.744Z,6.40
2022-10-05T05:14:09.173Z,5.50
2022-10-05T05:16:45.900Z,4.93
2022-10-05T05:19:41.432Z,5.17
2022-10-05T05:22:31.632Z,7.90
2022-10-05T05:25:35.373Z,5.83
2022-10-05T05:28:29.862Z,7.53
2022-10-05T05:31:02.852Z,3.80
2022-10-05T05:33:55.503Z,4.60
2022-10-05T05:36:36.957Z,5.77
2022-10-05T05:39:06.722Z,7.77
2022-10-05T05:41:58.373Z,8.43
2022-10-05T05:44:52.497Z,4.70
2022-10-05T05:47:20.118Z,5.63
2022-10-05T05:49:59.984Z,6.67
2022-10-05T05:52:45.220Z,4.80
2022-10-05T05:55:16.065Z,4.20
2022-10-05T05:57:58.541Z,3.63
2022-10-05T06:00:32.649Z,4.60
2022-10-05T06:03:15.648Z,6.13
2022-10-05T06:05:50.380Z,7.07
2022-10-05T06:08:47.959Z,4.17
2022-10-05T06:11:32.829Z,6.87
2022-10-05T06:14:05.337Z,6.67
2022-10-05T06:16:40.692Z,5.03
2022-10-05T06:19:21.272Z,7.20
2022-10-05T06:21:58.613Z,4.47
2022-10-05T06:24:36.823Z,4.90
2022-10-05T06:27:26.606Z,2.10
2022-10-05T06:30:07.360Z,4.67
2022-10-05T06:33:04.822Z,4.27
2022-10-05T06:36:11.935Z,4.67
2022-10-05T06:38:59.869Z,5.30
2022-10-05T06:42:05.041Z,4.73
2022-10-05T06:44:39.546Z,4.30
2022-10-05T06:47:37.178Z,2.03
2022-10-05T06:50:12.609Z,4.87
2022-10-05T06:53:07.096Z,6.83
2022-10-05T06:55:52.803Z,5.33
2022-10-05T06:58:47.676Z,4.87
2022-10-05T07:01:17.417Z,6.07
2022-10-05T07:04:13.991Z,7.80
2022-10-05T07:06:55.222Z,6.63
2022-10-05T07:09:44.024Z,3.50
2022-10-05T07:12:18.496Z,6.67
2022-10-05T07:14:48.188Z,6.47
2022-10-05T07:17:45.540Z,4.20
2022-10-05T07:20:38.507Z,5.67
2022-10-05T07:23:11.814Z,4.00
2022-10-05T07:25:54.189Z,5.37
2022-10-05T07:28:38.143Z,5.37
2022-10-05T07:31:30.933Z,4.00
2022-10-05T07:34:09.727Z,7.43
2022-10-05T07:37:09.725Z,6.90
2022-10-05T07:39:59.631Z,9.77
2022-10-05T07:43:00.787Z,5.33
2022-10-05T07:45:45.978Z,4.30
2022-10-05T07:48:21.443Z,7.97
2022-10-05T07:51:11.405Z,9.13
2022-10-05T07:53:41.787Z,9.40
2022-10-05T07:56:40.171Z,6.93
2022-10-05T07:59:16.708Z,7.10
2022-10-05T08:01:48.638Z,5.23
2022-10-05T08:04:27.998Z,5.87
2022-10-05T08:07:02.608Z,8.20
2022-10-05T08:09:42.162Z,7.60
2022-10-05T08:12:28.035Z,6.33
2022-10-05T08:15:04.648Z,6.10
2022-10-05T08:17:48.604Z,11.07
2022-10-05T08:20:36.967Z,6.07
2022-10-05T08:23:24.046Z,8.77
2022-10-05T08:26:02.666Z,6.40
2022-10-05T08:28:40.408Z,8.57
2022-10-05T08:31:25.521Z,9.23
2022-10-05T08:34:07.699Z,4.67
2022-10-05T08:36:53.565Z,7.00
2022-10-05T08:39:22.270Z,4.97
2022-10-05T08:42:20.657Z,6.27
2022-10-05T08:44:50.471Z,4.20
2022-10-05T08:47:45.810Z,7.53
2022-10-05T08:50:12.632Z,6.13
2022-10-05T08:53:26.883Z,8.53
2022-10-05T08:56:28.597Z,11.80
2022-10-05T08:59:04.844Z,7.83
2022-10-05T09:01:53.407Z,8.87
2022-10-05T09:04:34.804Z,8.53
2022-10-05T09:07:41.182Z,5.63
2022-10-05T09:10:35.933Z,6.33
2022-10-05T09:13:24.423Z,9.93
2022-10-05T09:16:20.592Z,7.20
2022-10-05T09:18:56.024Z,5.30
2022-10-05T09:21:42.941Z,6.90
2022-10-05T09:24:09.698Z,8.10
2022-10-05T09:27:03.615Z,11.77
2022-10-05T09:30:04.899Z,9.87
2022-10-05T09:32:32.068Z,8.83
2022-10-05T09:35:23.385Z,9.43
2022-10-05T09:38:12.227Z,8.23
2022-10-05T09:40:47.473Z,9.23
2022-10-05T09:43:26.191Z,5.87
2022-10-05T09:46:12.957Z,8.17
2022-10-05T09:49:11.581Z,7.33
2022-10-05T09:52:06.449Z,9.43
2022-10-05T09:55:18.180Z,8.33
2022-10-05T09:57:54.238Z,7.87
2022-10-05T10:01:34.765Z,10.20
2022-10-05T10:04:10.745Z,10.53
2022-10-05T10:07:34.800Z,9.83
2022-10-05T10:10:32.431Z,7.37
2022-10-05T10:13:29.954Z,10.27
2022-10-05T10:16:23.803Z,8.20
2022-10-05T10:18:56.606Z,10.67
2022-10-05T10:21:33.996Z,6.67
2022-10-05T10:24:00.818Z,10.03
2022-10-05T10:26:48.784Z,8.23
2022-10-05T10:29:21.750Z,10.63
2022-10-05T10:32:07.669Z,11.50
2022-10-05T10:34:43.804Z,7.47
2022-10-05T10:37:34.576Z,6.43
2022-10-05T10:40:21.358Z,9.53
2022-10-05T10:43:22.160Z,7.80
2022-10-05T10:46:17.262Z,5.60
2022-10-05T10:49:16.830Z,7.47
2022-10-05T10:52:12.992Z,5.33
2022-10-05T10:55:06.056Z,8.47
2022-10-05T10:57:38.677Z,7.53
2022-10-05T11:00:19.259Z,9.30
2022-10-05T11:03:35.762Z,7.47
2022-10-05T11:06:27.678Z,6.23
2022-10-05T11:08:57.377Z,6.57
2022-10-05T11:12:02.106Z,8.37
2022-10-05T11:14:47.620Z,7.63
2022-10-05T11:17:29.434Z,11.17
2022-10-05T11:20:22.767Z,8.60
2022-10-05T11:23:05.617Z,8.60
2022-10-05T11:25:44.297Z,8.47
2022-10-05T11:28:36.936Z,12.47
2022-10-05T11:31:03.765Z,7.70
2022-10-05T11:33:56.760Z,12.00
2022-10-05T11:36:51.651Z,7.87
2022-10-05T11:39:42.645Z,10.97
2022-10-05T11:42:47.336Z,6.57
2022-10-05T11:45:26.235Z,7.77
2022-10-05T11:48:20.813Z,9.27
2022-10-05T11:51:15.304Z,8.90
2022-10-05T11:53:57.519Z,7.83
2022-10-05T11:56:35.996Z,10.47
2022-10-05T11:59:21.066Z,8.30
2022-10-05T12:02:18.512Z,6.60
2022-10-05T12:04:48.228Z,4.73
2022-10-05T12:07:39.033Z,4.23
2022-10-05T12:10:17.653Z,6.07
2022-10-05T12:12:56.958Z,6.10
2022-10-05T12:15:56.637Z,6.70
2022-10-05T12:18:52.324Z,5.47
2022-10-05T12:21:22.839Z,5.60
2022-10-05T12:24:01.857Z,3.83
2022-10-05T12:26:35.636Z,4.37
2022-10-05T12:29:13.787Z,6.60
2022-10-05T12:31:54.494Z,5.30
2022-10-05T12:34:27.400Z,5.47
2022-10-05T12:37:09.255Z,7.30
2022-10-05T12:39:51.080Z,4.23
2022-10-05T12:42:41.877Z,5.03
2022-10-05T12:45:24.400Z,3.43
2022-10-05T12:48:06.701Z,3.87
2022-10-05T12:50:40.964Z,2.67
2022-10-05T12:53:16.833Z,3.43
2022-10-05T12:56:12.799Z,4.20
2022-10-05T12:59:10.863Z,4.33
2022-10-05T13:02:45.068Z,3.20
2022-10-05T13:05:18.449Z,3.17
2022-10-05T13:08:17.810Z,3.90
2022-10-05T13:10:46.891Z,2.43
2022-10-05T13:13:21.848Z,11.77
2022-10-05T13:16:23.910Z,1.80
2022-10-05T13:18:56.690Z,1.33
2022-10-05T13:21:48.362Z,1.03
2022-10-05T13:24:24.814Z,0.60
2022-10-05T13:26:58.319Z,0.37
2022-10-05T13:29:34.730Z,0.73
2022-10-05T13:32:12.600Z,1.87
2022-10-05T13:34:45.118Z,0.20
2022-10-05T13:37:24.080Z,0.73
2022-10-05T13:40:21.851Z,1.20
2022-10-05T13:43:40.066Z,0.73
2022-10-05T13:46:33.318Z,0.60
2022-10-05T13:49:04.999Z,0.33
2022-10-05T13:51:56.219Z,0.37
2022-10-05T13:54:28.942Z,0.47
2022-10-05T13:57:18.629Z,1.80
2022-10-05T13:59:58.350Z,0.60
2022-10-05T14:02:31.242Z,1.60
2022-10-05T14:05:01.201Z,1.10
2022-10-05T14:07:49.670Z,1.90
2022-10-05T14:10:40.815Z,1.17
2022-10-05T14:13:19.383Z,0.73
2022-10-05T14:16:06.956Z,0.57
2022-10-05T14:18:38.612Z,1.27
2022-10-05T14:21:08.568Z,1.73
2022-10-05T14:23:35.723Z,0.50
2022-10-05T14:26:04.445Z,0.67
2022-10-05T14:28:34.014Z,2.13
2022-10-05T14:31:16.217Z,1.80
2022-10-05T14:33:43.802Z,1.23
2022-10-05T14:36:35.776Z,0.50
2022-10-05T14:39:05.148Z,0.87
2022-10-05T14:41:37.655Z,3.43
2022-10-05T14:44:20.520Z,0.97
2022-10-05T14:46:56.691Z,0.67
2022-10-05T14:49:36.197Z,0.60
2022-10-05T14:52:32.733Z,1.03
2022-10-05T14:55:05.360Z,1.03
2022-10-05T14:57:44.991Z,1.13
2022-10-05T15:00:19.901Z,0.20
2022-10-05T15:02:58.615Z,0.33
2022-10-05T15:05:34.729Z,0.40
2022-10-05T15:08:20.463Z,0.17
2022-10-05T15:10:57.777Z,0.67
2022-10-05T15:13:31.305Z,0.53
2022-10-05T15:16:04.540Z,0.40
2022-10-05T15:18:43.883Z,0.57
2022-10-05T15:21:29.491Z,0.20
2022-10-05T15:24:00.793Z,0.67
2022-10-05T15:26:45.041Z,0.63
2022-10-05T15:29:27.533Z,0.77
2022-10-05T15:32:16.269Z,0.40
2022-10-05T15:35:01.678Z,1.10
2022-10-05T15:37:40.200Z,0.40
2022-10-05T15:40:36.436Z,0.97
2022-10-05T15:43:10.800Z,0.67
2022-10-05T15:45:52.972Z,0.50
2022-10-05T15:48:25.321Z,0.40
2022-10-05T15:51:03.693Z,1.27
2022-10-05T15:53:52.473Z,0.87
2022-10-05T15:56:26.750Z,2.07
2022-10-05T15:59:17.650Z,1.10
2022-10-05T16:01:51.836Z,1.20
2022-10-05T16:04:30.145Z,0.73
2022-10-05T16:07:22.907Z,1.43
2022-10-05T16:10:08.001Z,1.90
2022-10-05T16:13:09.422Z,1.17
2022-10-05T16:15:58.093Z,0.70
2022-10-05T16:18:36.894Z,0.63
2022-10-05T16:21:14.360Z,1.20
2022-10-05T16:24:00.215Z,0.90
2022-10-05T16:26:36.643Z,1.63
2022-10-05T16:29:19.075Z,1.00
2022-10-05T16:32:07.656Z,1.90
2022-10-05T16:34:58.642Z,2.10
2022-10-05T16:38:10.290Z,0.87
2022-10-05T16:41:02.002Z,2.53
2022-10-05T16:43:52.972Z,1.07
2022-10-05T16:46:39.361Z,1.57
2022-10-05T16:49:32.952Z,1.43
2022-10-05T16:52:00.640Z,0.93
2022-10-05T16:54:27.527Z,0.40
2022-10-05T16:57:17.783Z,1.23
2022-10-05T17:00:12.175Z,1.57
2022-10-05T17:02:54.982Z,2.00
2022-10-05T17:05:31.068Z,3.50
2022-10-05T17:08:09.954Z,3.77
2022-10-05T17:10:50.508Z,2.93
2022-10-05T17:13:48.165Z,2.47
2022-10-05T17:16:43.139Z,4.77
2022-10-05T17:19:49.742Z,3.67
2022-10-05T17:22:50.920Z,3.43
2022-10-05T17:25:43.157Z,5.07
2022-10-05T17:28:18.766Z,1.90
2022-10-05T17:31:06.867Z,2.87
2022-10-05T17:33:56.736Z,3.70
2022-10-05T17:36:40.050Z,2.67
2022-10-05T17:39:43.361Z,2.77
2022-10-05T17:42:42.183Z,4.10
2022-10-05T17:45:14.893Z,6.07
2022-10-05T17:48:01.811Z,2.83
2022-10-05T17:51:04.018Z,2.77
2022-10-05T17:54:09.115Z,6.10
2022-10-05T17:56:47.998Z,11.97
2022-10-05T17:59:40.451Z,8.83
2022-10-05T18:02:36.838Z,5.20
2022-10-05T18:05:07.105Z,5.53
2022-10-05T18:07:39.619Z,3.83
2022-10-05T18:10:12.162Z,2.87
2022-10-05T18:12:59.483Z,6.43
2022-10-05T18:15:26.785Z,4.60
2022-10-05T18:17:57.460Z,3.23
2022-10-05T18:20:24.875Z,5.67
2022-10-05T18:22:58.737Z,3.13
2022-10-05T18:25:45.549Z,3.03
2022-10-05T18:28:43.077Z,3.70
2022-10-05T18:31:39.168Z,6.27
2022-10-05T18:34:26.397Z,4.60
2022-10-05T18:37:12.293Z,3.40
2022-10-05T18:39:54.714Z,3.27
2022-10-05T18:42:40.813Z,2.30
2022-10-05T18:45:21.902Z,2.03
2022-10-05T18:47:53.692Z,5.20
2022-10-05T18:50:47.453Z,8.30
2022-10-05T18:54:08.310Z,3.47
2022-10-05T18:56:38.100Z,4.17
2022-10-05T18:59:18.935Z,2.70
2022-10-05T19:02:13.042Z,4.40
2022-10-05T19:05:42.539Z,3.70
2022-10-05T19:08:33.713Z,6.53
2022-10-05T19:11:26.593Z,3.67
2022-10-05T19:14:25.899Z,4.97
2022-10-05T19:17:13.186Z,5.40
2022-10-05T19:20:18.269Z,5.07
2022-10-05T19:23:18.390Z,5.07
2022-10-05T19:26:30.295Z,6.03
2022-10-05T19:29:28.014Z,6.20
2022-10-05T19:32:04.028Z,3.80
2022-10-05T19:34:49.298Z,3.20
2022-10-05T19:37:42.327Z,7.90
2022-10-05T19:40:39.062Z,6.47
2022-10-05T19:43:40.391Z,6.03
2022-10-05T19:46:19.855Z,9.10
2022-10-05T19:48:49.846Z,5.77
2022-10-05T19:51:30.527Z,5.47
2022-10-05T19:54:21.199Z,7.00
2022-10-05T19:56:51.023Z,6.73
2022-10-05T19:59:21.938Z,4.40
2022-10-05T20:02:20.335Z,8.77
2022-10-05T20:04:49.488Z,6.50
2022-10-05T20:07:22.082Z,6.53
2022-10-05T20:10:00.040Z,10.93
2022-10-05T20:12:54.383Z,5.90
2022-10-05T20:15:42.556Z,7.03
2022-10-05T20:18:50.877Z,5.70
2022-10-05T20:21:37.183Z,6.30
2022-10-05T20:24:25.668Z,7.47
2022-10-05T20:27:06.881Z,5.17
2022-10-05T20:29:37.891Z,7.60
2022-10-05T20:32:14.444Z,6.43
2022-10-05T20:34:43.674Z,5.23
2022-10-05T20:37:16.530Z,5.37
2022-10-05T20:39:43.802Z,7.70
2022-10-05T20:42:13.879Z,7.83
2022-10-05T20:44:41.085Z,6.57
2022-10-05T20:47:09.887Z,6.00
2022-10-05T20:49:38.384Z,6.37
2022-10-05T20:52:08.908Z,7.53
2022-10-05T20:54:37.424Z,6.47
2022-10-05T20:57:09.848Z,8.70
2022-10-05T20:59:37.273Z,5.20
2022-10-05T21:02:05.441Z,7.20
2022-10-05T21:04:40.934Z,7.43
2022-10-05T21:07:08.306Z,5.20
2022-10-05T21:09:37.971Z,9.40
2022-10-05T21:12:04.914Z,5.27
2022-10-05T21:14:34.429Z,6.77
2022-10-05T21:17:02.107Z,8.37
2022-10-05T21:19:29.619Z,8.40
2022-10-05T21:21:59.192Z,6.23
2022-10-05T21:24:26.326Z,7.40
2022-10-05T21:26:56.791Z,7.27
2022-10-05T21:29:23.624Z,9.17
2022-10-05T21:31:50.551Z,7.57
2022-10-05T21:34:17.380Z,9.30
2022-10-05T21:36:44.141Z,13.70
2022-10-05T21:39:10.863Z,8.63
2022-10-05T21:41:37.820Z,7.23
2022-10-05T21:44:06.305Z,7.77
2022-10-05T21:46:36.268Z,7.27
2022-10-05T21:49:03.303Z,6.27
2022-10-05T21:51:30.102Z,7.90
2022-10-05T21:54:19.489Z,8.73
2022-10-05T21:56:50.370Z,8.97
2022-10-05T21:59:20.335Z,7.77
2022-10-05T22:01:47.239Z,8.73
2022-10-05T22:04:15.097Z,8.77
2022-10-05T22:06:42.291Z,10.37
2022-10-05T22:09:09.234Z,7.10
2022-10-05T22:11:36.069Z,9.00
2022-10-05T22:14:02.986Z,8.57
2022-10-05T22:16:32.905Z,8.33
2022-10-05T22:19:04.142Z,6.83
2022-10-05T22:21:32.860Z,9.40
2022-10-05T22:24:04.722Z,6.90
2022-10-05T22:26:31.719Z,10.43
2022-10-05T22:28:58.685Z,10.33
2022-10-05T22:31:25.580Z,9.03
2022-10-05T22:33:54.860Z,7.70
2022-10-05T22:36:22.183Z,9.30
2022-10-05T22:38:49.071Z,8.73
2022-10-05T22:41:18.457Z,14.30
2022-10-05T22:43:50.003Z,10.87
2022-10-05T22:46:17.207Z,6.47
2022-10-05T22:48:44.242Z,6.67
2022-10-05T22:51:11.047Z,13.90
2022-10-05T22:53:38.190Z,7.90
2022-10-05T22:56:10.716Z,12.37
2022-10-05T22:58:40.311Z,9.30
2022-10-05T23:01:12.919Z,9.67
2022-10-05T23:03:40.818Z,11.90
2022-10-05T23:06:14.237Z,7.47
2022-10-05T23:08:41.995Z,6.83
2022-10-05T23:11:14.823Z,12.67
2022-10-05T23:13:43.076Z,13.30
2022-10-05T23:16:14.192Z,8.60
2022-10-05T23:18:41.775Z,9.87
2022-10-05T23:21:10.068Z,11.40
2022-10-05T23:23:39.800Z,10.60
2022-10-05T23:26:09.328Z,11.40
2022-10-05T23:28:36.391Z,9.00
2022-10-05T23:31:06.671Z,9.60
2022-10-05T23:33:35.021Z,9.13
2022-10-05T23:36:05.527Z,9.23
2022-10-05T23:38:32.614Z,9.50
2022-10-05T23:40:59.897Z,8.40
2022-10-05T23:43:27.390Z,10.00
2022-10-05T23:45:54.424Z,8.97
2022-10-05T23:48:21.571Z,9.50
2022-10-05T23:50:50.497Z,12.83
2022-10-05T23:53:18.392Z,9.90
2022-10-05T23:55:45.301Z,9.63
2022-10-05T23:58:12.387Z,9.27
